Time;durP1;ratioP1;P1;durP2;ratioP2;P2;SDS_P1;SDS_P2;PMS_P1;PMS_P2;Temp;Humidity;BMP_temperature;BMP_pressure;BME280_temperature;BME280_humidity;BME280_pressure;Samples;Min_cycle;Max_cycle;Signal;HPM_P1;HPM_P2
2023/05/11 00:02:16;;;;;;;8.43;7.67;;;;;;;;;;5093874;28;20453;-57
2023/05/11 00:04:43;;;;;;;9.20;8.30;;;;;;;;;;5094064;28;20532;-57
2023/05/11 00:07:10;;;;;;;9.50;8.70;;;;;;;;;;5094012;28;20479;-57
2023/05/11 00:09:38;;;;;;;9.70;8.30;;;;;;;;;;5094180;28;20453;-56
2023/05/11 00:12:05;;;;;;;8.83;8.10;;;;;;;;;;5093826;28;20565;-56
2023/05/11 00:14:31;;;;;;;8.30;7.70;;;;;;;;;;5093600;28;20510;-56
2023/05/11 00:16:58;;;;;;;9.73;8.90;;;;;;;;;;5093649;28;20447;-56
2023/05/11 00:19:27;;;;;;;9.40;8.50;;;;;;;;;;5093490;28;20901;-56
2023/05/11 00:21:53;;;;;;;9.83;8.97;;;;;;;;;;5093658;28;20452;-56
2023/05/11 00:24:20;;;;;;;9.43;8.70;;;;;;;;;;5093564;28;20457;-56
2023/05/11 00:26:47;;;;;;;10.47;9.57;;;;;;;;;;5093581;28;20445;-57
2023/05/11 00:29:14;;;;;;;8.83;8.13;;;;;;;;;;5093463;28;20444;-56
2023/05/11 00:31:41;;;;;;;9.40;8.60;;;;;;;;;;5093317;28;20443;-56
2023/05/11 00:34:08;;;;;;;8.40;7.63;;;;;;;;;;5093461;28;20838;-58
2023/05/11 00:36:38;;;;;;;8.87;8.10;;;;;;;;;;5093500;28;20885;-56
2023/05/11 00:39:05;;;;;;;9.50;8.80;;;;;;;;;;5093349;28;20456;-54
2023/05/11 00:41:32;;;;;;;8.70;8.03;;;;;;;;;;5093405;28;20512;-57
2023/05/11 00:43:59;;;;;;;9.23;8.43;;;;;;;;;;5093204;28;20911;-55
2023/05/11 00:46:26;;;;;;;9.50;8.63;;;;;;;;;;5092473;28;20478;-56
2023/05/11 00:48:53;;;;;;;9.90;8.50;;;;;;;;;;5093363;28;20447;-55
2023/05/11 00:51:20;;;;;;;9.70;8.80;;;;;;;;;;5093548;28;20447;-56
2023/05/11 00:53:48;;;;;;;8.70;8.00;;;;;;;;;;5093104;28;20566;-57
2023/05/11 00:56:15;;;;;;;9.37;8.67;;;;;;;;;;5093270;28;20995;-57
2023/05/11 00:58:42;;;;;;;8.87;8.00;;;;;;;;;;5092965;28;20447;-57
2023/05/11 01:01:09;;;;;;;9.30;8.50;;;;;;;;;;5093186;28;20439;-56
2023/05/11 01:03:36;;;;;;;10.90;9.53;;;;;;;;;;5093078;28;20448;-56
2023/05/11 01:06:07;;;;;;;9.37;8.47;;;;;;;;;;5093038;28;20446;-56
2023/05/11 01:08:41;;;;;;;9.67;8.80;;;;;;;;;;5093011;28;20454;-57
2023/05/11 01:11:11;;;;;;;9.77;8.70;;;;;;;;;;5092872;28;20853;-58
2023/05/11 01:13:40;;;;;;;10.60;9.60;;;;;;;;;;5093059;28;20479;-58
2023/05/11 01:16:09;;;;;;;9.50;8.73;;;;;;;;;;5093153;28;20447;-57
2023/05/11 01:18:39;;;;;;;9.97;8.97;;;;;;;;;;5092892;28;20439;-57
2023/05/11 01:21:07;;;;;;;9.20;8.40;;;;;;;;;;5092870;28;20538;-57
2023/05/11 01:24:04;;;;;;;9.50;8.70;;;;;;;;;;5092770;28;20454;-57
2023/05/11 01:26:37;;;;;;;11.70;10.70;;;;;;;;;;5030336;28;20559;-57
2023/05/11 01:29:22;;;;;;;9.87;8.97;;;;;;;;;;5080879;28;20452;-57
2023/05/11 01:31:50;;;;;;;9.90;9.00;;;;;;;;;;5092695;28;20941;-57
2023/05/11 01:34:18;;;;;;;9.07;8.37;;;;;;;;;;5092473;28;20453;-57
2023/05/11 01:36:50;;;;;;;8.97;8.30;;;;;;;;;;5092810;28;20543;-56
2023/05/11 01:39:19;;;;;;;10.20;9.30;;;;;;;;;;5092802;28;20818;-56
2023/05/11 01:41:51;;;;;;;10.43;9.23;;;;;;;;;;5092347;28;20989;-57
2023/05/11 01:44:19;;;;;;;8.73;8.13;;;;;;;;;;5092649;28;20451;-56
2023/05/11 01:46:47;;;;;;;10.80;9.80;;;;;;;;;;5092494;28;20482;-55
2023/05/11 01:49:15;;;;;;;12.93;9.73;;;;;;;;;;5093064;28;20414;-57
2023/05/11 01:51:42;;;;;;;10.40;9.60;;;;;;;;;;5092730;28;20443;-57
2023/05/11 01:54:11;;;;;;;9.63;8.83;;;;;;;;;;5092600;28;20838;-56
2023/05/11 01:56:39;;;;;;;9.87;9.07;;;;;;;;;;5093007;28;20525;-57
2023/05/11 01:59:07;;;;;;;10.07;9.27;;;;;;;;;;5096505;28;20454;-55
2023/05/11 02:01:35;;;;;;;10.00;9.20;;;;;;;;;;5096509;28;20474;-56
2023/05/11 02:04:04;;;;;;;9.40;8.70;;;;;;;;;;5096341;28;20523;-56
2023/05/11 02:06:33;;;;;;;8.83;8.13;;;;;;;;;;5096310;28;20444;-56
2023/05/11 02:09:01;;;;;;;8.33;7.63;;;;;;;;;;5096240;28;20418;-57
2023/05/11 02:11:29;;;;;;;10.03;9.03;;;;;;;;;;5096175;28;20795;-56
2023/05/11 02:13:57;;;;;;;9.23;8.53;;;;;;;;;;5096127;28;20573;-56
2023/05/11 02:16:24;;;;;;;10.30;9.30;;;;;;;;;;5096201;28;20542;-55
2023/05/11 02:18:52;;;;;;;9.60;8.90;;;;;;;;;;5096126;28;20477;-56
2023/05/11 02:21:19;;;;;;;9.70;8.90;;;;;;;;;;5095995;28;20508;-57
2023/05/11 02:23:48;;;;;;;10.03;9.17;;;;;;;;;;5095979;28;20451;-57
2023/05/11 02:26:16;;;;;;;8.53;7.83;;;;;;;;;;5095749;28;20533;-57
2023/05/11 02:28:43;;;;;;;9.33;8.50;;;;;;;;;;5096036;28;21001;-58
2023/05/11 02:31:12;;;;;;;10.37;9.40;;;;;;;;;;5095887;28;20454;-57
2023/05/11 02:33:43;;;;;;;10.60;9.60;;;;;;;;;;5095784;28;20470;-57
2023/05/11 02:36:12;;;;;;;9.13;8.40;;;;;;;;;;5095972;28;20457;-57
2023/05/11 02:38:39;;;;;;;9.90;8.90;;;;;;;;;;5095476;28;20429;-58
2023/05/11 02:41:09;;;;;;;10.20;9.27;;;;;;;;;;5095628;28;20471;-57
2023/05/11 02:43:39;;;;;;;9.87;9.03;;;;;;;;;;5095721;28;20880;-57
2023/05/11 02:46:07;;;;;;;9.43;8.57;;;;;;;;;;5095613;28;20538;-56
2023/05/11 02:48:36;;;;;;;9.27;8.37;;;;;;;;;;5095464;28;20454;-56
2023/05/11 02:51:04;;;;;;;10.30;9.37;;;;;;;;;;5095424;28;20449;-60
2023/05/11 02:53:33;;;;;;;10.13;9.33;;;;;;;;;;5095120;28;21072;-57
2023/05/11 02:56:00;;;;;;;12.90;9.40;;;;;;;;;;5095400;28;20443;-56
2023/05/11 02:58:28;;;;;;;10.57;9.37;;;;;;;;;;5095349;28;20461;-57
2023/05/11 03:00:56;;;;;;;9.23;8.43;;;;;;;;;;5095284;28;20447;-54
2023/05/11 03:03:22;;;;;;;9.17;8.30;;;;;;;;;;5095146;28;20980;-57
2023/05/11 03:05:50;;;;;;;10.57;9.20;;;;;;;;;;5094996;28;20442;-54
2023/05/11 03:08:16;;;;;;;10.37;9.37;;;;;;;;;;5094725;28;20486;-57
2023/05/11 03:10:44;;;;;;;9.70;8.90;;;;;;;;;;5094878;28;20961;-57
2023/05/11 03:13:11;;;;;;;9.23;8.43;;;;;;;;;;5094974;28;20454;-57
2023/05/11 03:15:39;;;;;;;9.70;8.90;;;;;;;;;;5094921;28;20421;-57
2023/05/11 03:18:07;;;;;;;9.10;8.40;;;;;;;;;;5094902;28;20447;-56
2023/05/11 03:20:34;;;;;;;9.47;8.30;;;;;;;;;;5094931;28;20533;-56
2023/05/11 03:23:02;;;;;;;9.00;8.30;;;;;;;;;;5094956;28;20879;-56
2023/05/11 03:25:29;;;;;;;9.70;9.00;;;;;;;;;;5094787;28;20476;-55
2023/05/11 03:27:57;;;;;;;10.10;9.30;;;;;;;;;;5094830;28;20959;-57
2023/05/11 03:30:25;;;;;;;9.30;8.50;;;;;;;;;;5094526;28;20560;-56
2023/05/11 03:32:54;;;;;;;9.50;8.60;;;;;;;;;;5095083;28;20925;-58
2023/05/11 03:35:22;;;;;;;9.73;8.73;;;;;;;;;;5094877;28;20573;-56
2023/05/11 03:37:50;;;;;;;8.63;7.93;;;;;;;;;;5094655;28;20486;-56
2023/05/11 03:40:17;;;;;;;9.90;8.50;;;;;;;;;;5094439;28;20500;-56
2023/05/11 03:42:44;;;;;;;9.70;8.80;;;;;;;;;;5094488;28;20566;-57
2023/05/11 03:45:13;;;;;;;9.67;8.77;;;;;;;;;;5094412;28;20538;-56
2023/05/11 03:47:41;;;;;;;10.87;9.33;;;;;;;;;;5094121;28;20553;-57
2023/05/11 03:50:10;;;;;;;9.60;8.67;;;;;;;;;;5094438;28;20451;-57
2023/05/11 03:52:37;;;;;;;10.50;9.37;;;;;;;;;;5094357;28;20970;-57
2023/05/11 03:55:04;;;;;;;10.97;8.20;;;;;;;;;;5094000;28;20483;-57
2023/05/11 03:57:31;;;;;;;8.90;8.13;;;;;;;;;;5094169;28;20454;-57
2023/05/11 03:59:58;;;;;;;9.13;8.30;;;;;;;;;;5093988;28;20784;-57
2023/05/11 04:02:25;;;;;;;9.13;8.33;;;;;;;;;;5093907;28;21700;-56
2023/05/11 04:04:52;;;;;;;9.30;8.50;;;;;;;;;;5094056;28;20740;-56
2023/05/11 04:07:20;;;;;;;11.33;8.10;;;;;;;;;;5094238;28;20534;-57
2023/05/11 04:09:47;;;;;;;10.67;9.67;;;;;;;;;;5094064;28;20450;-56
2023/05/11 04:12:14;;;;;;;13.90;9.73;;;;;;;;;;5093797;28;20537;-54
2023/05/11 04:14:41;;;;;;;13.63;10.50;;;;;;;;;;5093732;28;21040;-57
2023/05/11 04:17:08;;;;;;;8.50;7.80;;;;;;;;;;5094214;28;20538;-56
2023/05/11 04:19:35;;;;;;;11.97;7.90;;;;;;;;;;5093794;28;20455;-57
2023/05/11 04:22:02;;;;;;;9.23;8.33;;;;;;;;;;5093246;28;20554;-57
2023/05/11 04:24:30;;;;;;;8.23;7.43;;;;;;;;;;5093644;28;20454;-57
2023/05/11 04:26:57;;;;;;;11.03;9.10;;;;;;;;;;5093518;28;20534;-58
2023/05/11 04:29:24;;;;;;;6.83;6.33;;;;;;;;;;5093423;28;20490;-58
2023/05/11 04:31:51;;;;;;;9.30;8.50;;;;;;;;;;5093622;28;20422;-58
2023/05/11 04:34:18;;;;;;;7.33;6.83;;;;;;;;;;5093501;28;20557;-57
2023/05/11 04:36:47;;;;;;;8.43;7.53;;;;;;;;;;5093482;28;20422;-57
2023/05/11 04:39:14;;;;;;;8.33;7.63;;;;;;;;;;5093401;28;20450;-57
2023/05/11 04:41:43;;;;;;;7.60;6.90;;;;;;;;;;5093165;28;20477;-58
2023/05/11 04:44:10;;;;;;;7.83;7.23;;;;;;;;;;5093449;28;20506;-58
2023/05/11 04:46:38;;;;;;;8.67;7.87;;;;;;;;;;5093102;28;20853;-56
2023/05/11 04:49:05;;;;;;;9.63;7.73;;;;;;;;;;5093385;28;20436;-57
2023/05/11 04:51:32;;;;;;;8.83;8.00;;;;;;;;;;5093101;28;20454;-57
2023/05/11 04:53:59;;;;;;;11.07;9.17;;;;;;;;;;5093071;28;20536;-57
2023/05/11 04:56:26;;;;;;;11.17;8.17;;;;;;;;;;5093012;28;20542;-56
2023/05/11 04:58:54;;;;;;;9.60;8.27;;;;;;;;;;5093084;28;20474;-57
2023/05/11 05:01:21;;;;;;;11.60;8.20;;;;;;;;;;5093319;28;20446;-57
2023/05/11 05:03:50;;;;;;;7.53;6.93;;;;;;;;;;5093060;28;20784;-57
2023/05/11 05:06:17;;;;;;;9.30;6.57;;;;;;;;;;5092981;28;20786;-59
2023/05/11 05:08:44;;;;;;;7.70;7.00;;;;;;;;;;5092854;28;20447;-57
2023/05/11 05:11:11;;;;;;;10.43;6.83;;;;;;;;;;5093003;28;20482;-56
2023/05/11 05:13:38;;;;;;;7.63;6.90;;;;;;;;;;5093080;28;20508;-57
2023/05/11 05:16:06;;;;;;;6.80;5.77;;;;;;;;;;5092939;28;20482;-56
2023/05/11 05:18:33;;;;;;;7.00;6.50;;;;;;;;;;5092751;28;20443;-56
2023/05/11 05:21:00;;;;;;;7.50;6.90;;;;;;;;;;5092960;28;20534;-55
2023/05/11 05:23:27;;;;;;;7.90;6.90;;;;;;;;;;5092671;28;20810;-58
2023/05/11 05:25:54;;;;;;;7.07;6.50;;;;;;;;;;5092851;28;20900;-56
2023/05/11 05:28:21;;;;;;;7.20;6.60;;;;;;;;;;5092859;28;20511;-55
2023/05/11 05:30:48;;;;;;;7.20;6.50;;;;;;;;;;5092872;28;20934;-57
2023/05/11 05:33:16;;;;;;;8.13;6.20;;;;;;;;;;5095998;28;20425;-56
2023/05/11 05:35:45;;;;;;;6.50;6.00;;;;;;;;;;5096541;28;20564;-57
2023/05/11 05:38:12;;;;;;;6.33;5.73;;;;;;;;;;5096800;28;20438;-55
2023/05/11 05:40:39;;;;;;;6.30;5.90;;;;;;;;;;5096558;28;20450;-59
2023/05/11 05:43:06;;;;;;;6.40;5.80;;;;;;;;;;5096804;28;20448;-56
2023/05/11 05:45:33;;;;;;;6.00;5.60;;;;;;;;;;5096644;28;20451;-55
2023/05/11 05:48:00;;;;;;;6.10;5.67;;;;;;;;;;5096720;28;20445;-56
2023/05/11 05:50:28;;;;;;;6.37;5.87;;;;;;;;;;5096366;28;20454;-56
2023/05/11 05:52:55;;;;;;;5.73;5.33;;;;;;;;;;5096587;28;20482;-58
2023/05/11 05:55:22;;;;;;;5.97;5.47;;;;;;;;;;5096470;28;20483;-57
2023/05/11 05:57:49;;;;;;;8.80;5.03;;;;;;;;;;5096413;28;20423;-57
2023/05/11 06:00:17;;;;;;;5.63;5.23;;;;;;;;;;5096284;28;20447;-57
2023/05/11 06:02:44;;;;;;;5.70;5.30;;;;;;;;;;5096153;28;20534;-57
2023/05/11 06:05:10;;;;;;;5.07;4.63;;;;;;;;;;5096172;28;20550;-56
2023/05/11 06:07:39;;;;;;;5.90;5.40;;;;;;;;;;5096240;28;20452;-57
2023/05/11 06:10:06;;;;;;;5.30;5.00;;;;;;;;;;5096021;28;20455;-57
2023/05/11 06:12:33;;;;;;;6.10;5.00;;;;;;;;;;5096202;28;20883;-58
2023/05/11 06:30:19;;;;;;;4.33;4.03;;;;;;;;;;5095713;28;20421;-60
2023/05/11 06:32:46;;;;;;;5.13;3.90;;;;;;;;;;5095575;28;21009;-58
2023/05/11 06:35:13;;;;;;;4.87;4.50;;;;;;;;;;5095627;28;20505;-57
2023/05/11 06:37:40;;;;;;;7.37;4.07;;;;;;;;;;5095631;28;20491;-58
2023/05/11 06:40:08;;;;;;;5.43;3.13;;;;;;;;;;5095424;28;20958;-58
2023/05/11 06:42:35;;;;;;;3.90;3.63;;;;;;;;;;5095449;28;20480;-58
2023/05/11 06:45:02;;;;;;;4.30;3.47;;;;;;;;;;5094227;28;20449;-58
2023/05/11 06:47:30;;;;;;;3.10;2.80;;;;;;;;;;5095512;28;20454;-59
2023/05/11 06:49:57;;;;;;;4.03;3.40;;;;;;;;;;5095349;28;20449;-58
2023/05/11 06:52:24;;;;;;;4.07;3.70;;;;;;;;;;5095462;28;20428;-58
2023/05/11 06:54:51;;;;;;;9.67;3.03;;;;;;;;;;5095106;28;21036;-58
2023/05/11 06:57:18;;;;;;;6.03;3.00;;;;;;;;;;5095120;28;20452;-58
2023/05/11 06:59:45;;;;;;;7.20;3.57;;;;;;;;;;5094841;28;20537;-58
2023/05/11 07:02:12;;;;;;;4.73;3.00;;;;;;;;;;5095130;28;20597;-59
2023/05/11 07:04:40;;;;;;;4.07;3.53;;;;;;;;;;5094880;28;20978;-58
2023/05/11 07:07:10;;;;;;;5.00;3.40;;;;;;;;;;5095116;28;20873;-59
2023/05/11 07:09:36;;;;;;;4.30;2.87;;;;;;;;;;5094919;28;20450;-58
2023/05/11 07:12:03;;;;;;;3.43;3.13;;;;;;;;;;5094801;28;20546;-57
2023/05/11 07:14:30;;;;;;;3.40;3.10;;;;;;;;;;5094649;28;20449;-58
2023/05/11 07:16:57;;;;;;;3.83;3.53;;;;;;;;;;5094958;28;20540;-58
2023/05/11 07:19:24;;;;;;;5.40;3.10;;;;;;;;;;5094847;28;20453;-57
2023/05/11 07:21:53;;;;;;;3.50;3.30;;;;;;;;;;5094744;28;20486;-57
2023/05/11 07:24:20;;;;;;;3.33;3.10;;;;;;;;;;5094650;28;20460;-58
2023/05/11 07:26:47;;;;;;;4.23;3.30;;;;;;;;;;5094489;28;20548;-59
2023/05/11 07:29:14;;;;;;;3.80;3.43;;;;;;;;;;5094665;28;20450;-57
2023/05/11 07:31:41;;;;;;;4.33;3.30;;;;;;;;;;5094660;28;20441;-58
2023/05/11 07:34:08;;;;;;;7.70;3.73;;;;;;;;;;5094550;28;20458;-58
2023/05/11 07:36:35;;;;;;;4.07;3.67;;;;;;;;;;5094229;28;20525;-59
2023/05/11 07:39:04;;;;;;;3.60;3.40;;;;;;;;;;5093830;28;20457;-58
2023/05/11 07:41:30;;;;;;;4.83;3.70;;;;;;;;;;5093997;28;20465;-59
2023/05/11 07:44:00;;;;;;;3.70;3.40;;;;;;;;;;5094231;28;20489;-58
2023/05/11 07:46:27;;;;;;;4.00;3.50;;;;;;;;;;5094336;28;20451;-58
2023/05/11 07:48:54;;;;;;;5.43;4.90;;;;;;;;;;5094074;28;20538;-59
2023/05/11 07:51:21;;;;;;;3.60;3.30;;;;;;;;;;5094396;28;20446;-58
2023/05/11 07:53:48;;;;;;;3.60;2.83;;;;;;;;;;5093960;28;20468;-57
2023/05/11 07:56:16;;;;;;;3.30;3.00;;;;;;;;;;5094211;28;20549;-56
2023/05/11 07:58:43;;;;;;;3.67;3.47;;;;;;;;;;5094122;28;20836;-56
2023/05/11 08:01:10;;;;;;;6.37;3.80;;;;;;;;;;5093945;28;20453;-57
2023/05/11 08:03:37;;;;;;;3.20;3.00;;;;;;;;;;5093938;28;20889;-59
2023/05/11 08:06:04;;;;;;;3.03;2.83;;;;;;;;;;5093877;28;20445;-57
2023/05/11 08:08:31;;;;;;;3.50;2.90;;;;;;;;;;5093931;28;20531;-57
2023/05/11 08:10:58;;;;;;;3.17;2.97;;;;;;;;;;5093929;28;20442;-57
2023/05/11 08:13:27;;;;;;;3.37;2.77;;;;;;;;;;5091610;28;20458;-57
2023/05/11 08:15:54;;;;;;;4.50;2.90;;;;;;;;;;5087292;28;20569;-55
2023/05/11 08:18:21;;;;;;;2.93;2.70;;;;;;;;;;5082600;28;20449;-55
2023/05/11 08:20:48;;;;;;;2.80;2.63;;;;;;;;;;5093640;28;20525;-56
2023/05/11 08:23:16;;;;;;;5.20;3.90;;;;;;;;;;5093421;28;20451;-57
2023/05/11 08:25:50;;;;;;;4.07;3.10;;;;;;;;;;5093734;28;20488;-57
2023/05/11 08:28:17;;;;;;;3.90;3.60;;;;;;;;;;5093547;28;20794;-57
2023/05/11 08:30:45;;;;;;;3.00;2.63;;;;;;;;;;5093470;28;20477;-58
2023/05/11 08:33:12;;;;;;;2.70;2.50;;;;;;;;;;5093479;28;20458;-56
2023/05/11 08:35:39;;;;;;;4.93;2.87;;;;;;;;;;5093210;28;20952;-57
2023/05/11 08:38:06;;;;;;;7.00;3.13;;;;;;;;;;5093460;28;20454;-57
2023/05/11 08:40:33;;;;;;;2.73;2.63;;;;;;;;;;5093472;28;20541;-58
2023/05/11 08:43:01;;;;;;;2.90;2.70;;;;;;;;;;5093405;28;21006;-58
2023/05/11 08:45:28;;;;;;;2.70;2.57;;;;;;;;;;5093447;28;20447;-58
2023/05/11 08:47:56;;;;;;;2.63;2.43;;;;;;;;;;5093201;28;20874;-58
2023/05/11 08:50:24;;;;;;;2.80;2.70;;;;;;;;;;5093291;28;20537;-59
2023/05/11 08:52:51;;;;;;;3.57;2.57;;;;;;;;;;5093146;28;20447;-58
2023/05/11 08:55:18;;;;;;;3.80;2.40;;;;;;;;;;5093121;28;20511;-58
2023/05/11 08:57:45;;;;;;;2.57;2.47;;;;;;;;;;5093328;28;20458;-57
2023/05/11 09:00:13;;;;;;;2.90;2.70;;;;;;;;;;5092925;28;20968;-57
2023/05/11 09:02:40;;;;;;;2.70;2.50;;;;;;;;;;5092896;28;20455;-57
2023/05/11 09:05:09;;;;;;;3.13;2.97;;;;;;;;;;5093101;28;20450;-57
2023/05/11 09:07:37;;;;;;;3.03;2.83;;;;;;;;;;5092530;28;20546;-56
2023/05/11 09:10:04;;;;;;;2.73;2.53;;;;;;;;;;5093106;28;20455;-57
2023/05/11 09:12:31;;;;;;;4.00;2.03;;;;;;;;;;5092917;28;20534;-57
2023/05/11 09:14:58;;;;;;;2.50;2.30;;;;;;;;;;5092805;28;20457;-57
2023/05/11 09:17:27;;;;;;;5.53;2.67;;;;;;;;;;5092782;28;20525;-57
2023/05/11 09:19:59;;;;;;;3.83;2.60;;;;;;;;;;5092949;28;20938;-58
2023/05/11 09:22:27;;;;;;;5.53;2.40;;;;;;;;;;5092995;28;20443;-57
2023/05/11 09:24:54;;;;;;;2.70;2.40;;;;;;;;;;5092722;28;20450;-58
2023/05/11 09:27:24;;;;;;;2.57;2.30;;;;;;;;;;5092735;28;20447;-58
2023/05/11 09:29:52;;;;;;;2.33;1.90;;;;;;;;;;5092910;28;20443;-58
2023/05/11 09:32:19;;;;;;;5.50;2.50;;;;;;;;;;5092834;28;20443;-58
2023/05/11 09:34:46;;;;;;;5.97;2.77;;;;;;;;;;5092864;28;20451;-57
2023/05/11 09:37:16;;;;;;;2.57;2.37;;;;;;;;;;5092637;28;20479;-57
2023/05/11 09:39:44;;;;;;;2.30;2.20;;;;;;;;;;5092589;28;20885;-57
2023/05/11 09:42:12;;;;;;;4.07;2.40;;;;;;;;;;5092289;28;20574;-58
2023/05/11 09:44:40;;;;;;;2.50;2.30;;;;;;;;;;5092754;28;20455;-57
2023/05/11 09:47:11;;;;;;;3.60;2.30;;;;;;;;;;5092775;28;20961;-58
2023/05/11 09:49:38;;;;;;;2.90;1.90;;;;;;;;;;5092655;28;20463;-57
2023/05/11 09:52:05;;;;;;;2.53;1.93;;;;;;;;;;5092534;28;20446;-57
2023/05/11 09:54:40;;;;;;;2.90;2.00;;;;;;;;;;5092467;28;20539;-57
2023/05/11 09:57:16;;;;;;;2.53;2.33;;;;;;;;;;5092610;28;20488;-58
2023/05/11 09:59:43;;;;;;;5.40;2.17;;;;;;;;;;5092717;28;20545;-57
2023/05/11 10:02:17;;;;;;;2.20;2.00;;;;;;;;;;5092595;28;21001;-58
2023/05/11 10:04:44;;;;;;;2.73;2.00;;;;;;;;;;5092449;28;20450;-58
2023/05/11 10:07:11;;;;;;;2.10;2.00;;;;;;;;;;5092418;28;20458;-58
2023/05/11 10:09:38;;;;;;;3.03;2.10;;;;;;;;;;5092599;28;20447;-58
2023/05/11 10:12:06;;;;;;;3.50;2.60;;;;;;;;;;5092738;28;20504;-58
2023/05/11 10:14:35;;;;;;;2.33;2.00;;;;;;;;;;5081518;28;20534;-57
2023/05/11 10:17:02;;;;;;;2.67;2.47;;;;;;;;;;5081352;28;20997;-57
2023/05/11 10:19:28;;;;;;;3.93;1.73;;;;;;;;;;5081631;28;20901;-58
2023/05/11 10:21:56;;;;;;;5.87;3.07;;;;;;;;;;5086371;28;20451;-58
2023/05/11 10:24:23;;;;;;;3.17;1.97;;;;;;;;;;5085065;28;20451;-58
2023/05/11 10:26:50;;;;;;;2.57;2.10;;;;;;;;;;5075220;28;21017;-58
2023/05/11 10:29:19;;;;;;;2.40;2.20;;;;;;;;;;5075059;28;20475;-58
2023/05/11 10:31:49;;;;;;;2.30;2.10;;;;;;;;;;5075068;28;20463;-58
2023/05/11 10:34:16;;;;;;;2.37;2.17;;;;;;;;;;5074484;28;20530;-58
2023/05/11 10:36:45;;;;;;;2.13;2.03;;;;;;;;;;5073649;28;20505;-58
2023/05/11 10:39:11;;;;;;;2.07;1.97;;;;;;;;;;5075049;28;20802;-58
2023/05/11 10:41:45;;;;;;;7.17;2.13;;;;;;;;;;5074987;28;20911;-58
2023/05/11 10:44:24;;;;;;;5.33;1.90;;;;;;;;;;5075376;28;20463;-58
2023/05/11 10:47:00;;;;;;;2.03;1.93;;;;;;;;;;5075179;28;20458;-57
2023/05/11 10:49:37;;;;;;;2.67;1.60;;;;;;;;;;5075321;28;20451;-58
2023/05/11 10:52:10;;;;;;;1.97;1.87;;;;;;;;;;5075378;28;21013;-58
2023/05/11 10:54:42;;;;;;;3.67;2.10;;;;;;;;;;5075024;28;20482;-57
2023/05/11 10:57:13;;;;;;;1.80;1.70;;;;;;;;;;5074790;28;20532;-56
2023/05/11 11:00:09;;;;;;;2.17;2.00;;;;;;;;;;5075011;28;20466;-57
2023/05/11 11:02:37;;;;;;;1.70;1.60;;;;;;;;;;5074776;28;20951;-58
2023/05/11 11:05:08;;;;;;;3.27;2.90;;;;;;;;;;5074660;28;20558;-58
2023/05/11 11:07:50;;;;;;;2.43;1.80;;;;;;;;;;5074608;28;20458;-58
2023/05/11 11:10:30;;;;;;;2.30;2.20;;;;;;;;;;5074503;28;20448;-58
2023/05/11 11:13:03;;;;;;;1.50;1.40;;;;;;;;;;5074773;28;20444;-58
2023/05/11 11:15:45;;;;;;;2.37;2.17;;;;;;;;;;5074695;28;20925;-58
2023/05/11 11:18:23;;;;;;;2.20;2.07;;;;;;;;;;5074382;28;20547;-58
2023/05/11 11:20:51;;;;;;;3.03;1.73;;;;;;;;;;5074189;28;20540;-60
2023/05/11 11:23:33;;;;;;;1.80;1.70;;;;;;;;;;5074409;28;20623;-58
2023/05/11 11:26:01;;;;;;;2.00;1.90;;;;;;;;;;5074302;28;20878;-58
2023/05/11 11:28:28;;;;;;;2.90;2.10;;;;;;;;;;5074356;28;20447;-58
2023/05/11 11:31:14;;;;;;;2.57;1.73;;;;;;;;;;5073997;28;20811;-58
2023/05/11 11:33:42;;;;;;;5.90;1.87;;;;;;;;;;5074330;28;20451;-57
2023/05/11 11:36:09;;;;;;;2.83;1.50;;;;;;;;;;5074091;28;20475;-57
2023/05/11 11:38:56;;;;;;;1.67;1.57;;;;;;;;;;5074009;28;21007;-58
2023/05/11 11:41:31;;;;;;;1.60;1.50;;;;;;;;;;5074128;28;20563;-58
2023/05/11 11:43:59;;;;;;;5.00;2.05;;;;;;;;;;5073213;28;20460;-58
2023/05/11 11:46:27;;;;;;;2.33;1.70;;;;;;;;;;5073915;28;20205;-58
2023/05/11 11:49:06;;;;;;;1.60;1.50;;;;;;;;;;5073863;28;20443;-58
2023/05/11 11:51:34;;;;;;;2.70;1.70;;;;;;;;;;5073662;28;20448;-58
2023/05/11 11:54:00;;;;;;;2.07;1.70;;;;;;;;;;5073657;28;20455;-58
2023/05/11 11:56:38;;;;;;;5.50;1.60;;;;;;;;;;5076273;28;20804;-58
2023/05/11 11:59:09;;;;;;;3.80;1.60;;;;;;;;;;5093176;28;20443;-58
2023/05/11 12:01:37;;;;;;;2.63;1.30;;;;;;;;;;5093188;28;20814;-58
2023/05/11 12:04:18;;;;;;;2.80;1.90;;;;;;;;;;5093430;28;20471;-57
2023/05/11 12:06:46;;;;;;;1.93;1.83;;;;;;;;;;5092626;28;20458;-57
2023/05/11 12:09:17;;;;;;;1.67;1.57;;;;;;;;;;5093274;28;20825;-57
2023/05/11 12:11:46;;;;;;;1.63;1.53;;;;;;;;;;5093727;28;20892;-58
2023/05/11 12:14:13;;;;;;;1.97;1.87;;;;;;;;;;5093602;28;20454;-58
2023/05/11 12:16:40;;;;;;;1.60;1.50;;;;;;;;;;5093504;28;20475;-58
2023/05/11 12:19:07;;;;;;;2.80;1.77;;;;;;;;;;5093962;28;20479;-58
2023/05/11 12:21:35;;;;;;;4.73;1.80;;;;;;;;;;5093261;28;20447;-57
2023/05/11 12:24:03;;;;;;;3.47;1.50;;;;;;;;;;5093557;28;20545;-58
2023/05/11 12:26:30;;;;;;;2.43;1.73;;;;;;;;;;5093160;28;20449;-58
2023/05/11 12:29:07;;;;;;;1.50;1.30;;;;;;;;;;5093241;28;20438;-57
2023/05/11 12:31:35;;;;;;;1.60;1.50;;;;;;;;;;5093263;28;20960;-56
2023/05/11 12:34:02;;;;;;;1.80;1.47;;;;;;;;;;5093258;28;20443;-57
2023/05/11 12:36:30;;;;;;;1.93;1.47;;;;;;;;;;5093302;28;20463;-57
2023/05/11 12:38:59;;;;;;;1.70;1.60;;;;;;;;;;5093157;28;20957;-57
2023/05/11 12:41:26;;;;;;;3.03;1.83;;;;;;;;;;5092493;28;20475;-56
2023/05/11 12:43:54;;;;;;;1.77;1.50;;;;;;;;;;5093282;28;20814;-58
2023/05/11 12:46:21;;;;;;;4.80;1.87;;;;;;;;;;5093213;28;20484;-57
2023/05/11 12:48:49;;;;;;;2.60;1.43;;;;;;;;;;5093261;28;20439;-57
2023/05/11 12:51:31;;;;;;;2.43;1.80;;;;;;;;;;5093140;28;20451;-57
2023/05/11 12:54:00;;;;;;;1.80;1.70;;;;;;;;;;5092845;28;20447;-57
2023/05/11 12:56:26;;;;;;;1.80;1.70;;;;;;;;;;5093097;28;20449;-60
2023/05/11 12:58:53;;;;;;;1.60;1.50;;;;;;;;;;5092957;28;20450;-57
2023/05/11 13:01:25;;;;;;;3.30;1.60;;;;;;;;;;5092828;28;20537;-57
2023/05/11 13:03:52;;;;;;;2.57;1.40;;;;;;;;;;5092760;28;20925;-57
2023/05/11 13:06:19;;;;;;;2.60;1.43;;;;;;;;;;5076132;28;20534;-57
2023/05/11 13:08:47;;;;;;;3.17;2.40;;;;;;;;;;5072693;28;20444;-58
2023/05/11 13:11:18;;;;;;;4.30;1.93;;;;;;;;;;5072478;28;20447;-57
2023/05/11 13:13:45;;;;;;;1.93;1.83;;;;;;;;;;5072674;28;20448;-58
2023/05/11 13:16:12;;;;;;;1.83;1.50;;;;;;;;;;5072587;28;20448;-57
2023/05/11 13:18:39;;;;;;;1.70;1.60;;;;;;;;;;5072417;28;20454;-58
2023/05/11 13:21:07;;;;;;;1.87;1.77;;;;;;;;;;5072301;28;20951;-57
2023/05/11 13:23:35;;;;;;;2.43;2.07;;;;;;;;;;5072512;28;20529;-59
2023/05/11 13:26:02;;;;;;;1.70;1.60;;;;;;;;;;5072071;28;21004;-57
2023/05/11 13:28:30;;;;;;;4.53;1.80;;;;;;;;;;5072344;28;20535;-57
2023/05/11 13:31:01;;;;;;;2.80;1.50;;;;;;;;;;5072627;28;20443;-57
2023/05/11 13:33:28;;;;;;;3.83;1.70;;;;;;;;;;5072052;28;20476;-61
2023/05/11 13:35:55;;;;;;;3.00;1.70;;;;;;;;;;5072545;28;20461;-58
2023/05/11 13:38:21;;;;;;;1.97;1.87;;;;;;;;;;5072485;28;20479;-57
2023/05/11 13:40:48;;;;;;;2.60;1.57;;;;;;;;;;5072331;28;20538;-57
2023/05/11 13:43:15;;;;;;;2.50;1.80;;;;;;;;;;5072626;28;20458;-57
2023/05/11 13:45:43;;;;;;;1.93;1.83;;;;;;;;;;5072284;28;20462;-57
2023/05/11 13:48:10;;;;;;;4.10;2.13;;;;;;;;;;5072327;28;20930;-58
2023/05/11 13:50:37;;;;;;;2.13;2.03;;;;;;;;;;5072362;28;20509;-58
2023/05/11 13:53:04;;;;;;;3.27;2.03;;;;;;;;;;5073581;28;20810;-58
2023/05/11 13:55:31;;;;;;;2.33;1.80;;;;;;;;;;5076188;28;20452;-58
2023/05/11 13:57:58;;;;;;;2.10;1.93;;;;;;;;;;5075823;28;20574;-58
2023/05/11 14:00:25;;;;;;;1.73;1.63;;;;;;;;;;5075991;28;21061;-58
2023/05/11 14:02:53;;;;;;;2.00;1.80;;;;;;;;;;5076324;28;20444;-59
2023/05/11 14:05:20;;;;;;;2.30;2.10;;;;;;;;;;5076124;28;20505;-58
2023/05/11 14:07:47;;;;;;;2.03;1.93;;;;;;;;;;5076047;28;20448;-58
2023/05/11 14:10:14;;;;;;;3.77;1.47;;;;;;;;;;5076048;28;20454;-58
2023/05/11 14:12:42;;;;;;;1.80;1.33;;;;;;;;;;5075885;28;20877;-58
2023/05/11 14:15:10;;;;;;;3.13;1.83;;;;;;;;;;5075799;28;20496;-58
2023/05/11 14:17:36;;;;;;;3.43;1.90;;;;;;;;;;5075958;28;20483;-58
2023/05/11 14:20:05;;;;;;;2.03;1.50;;;;;;;;;;5075836;28;20542;-59
2023/05/11 14:22:32;;;;;;;2.20;1.83;;;;;;;;;;5075950;28;20451;-58
2023/05/11 14:25:00;;;;;;;1.70;1.60;;;;;;;;;;5075710;28;20792;-58
2023/05/11 14:27:27;;;;;;;2.03;1.30;;;;;;;;;;5075504;28;20452;-58
2023/05/11 14:29:54;;;;;;;3.00;1.80;;;;;;;;;;5075451;28;20447;-58
2023/05/11 14:32:21;;;;;;;1.73;1.50;;;;;;;;;;5075393;28;20931;-58
2023/05/11 14:34:48;;;;;;;2.27;2.00;;;;;;;;;;5075455;28;20550;-58
2023/05/11 14:37:16;;;;;;;3.10;1.80;;;;;;;;;;5075267;28;20471;-58
2023/05/11 14:39:43;;;;;;;3.70;1.70;;;;;;;;;;5075441;28;20753;-58
2023/05/11 14:42:10;;;;;;;13.53;2.90;;;;;;;;;;5075063;28;20484;-58
2023/05/11 14:44:37;;;;;;;2.40;1.50;;;;;;;;;;5075394;28;20482;-59
2023/05/11 14:47:05;;;;;;;5.23;1.50;;;;;;;;;;5075442;28;20862;-58
2023/05/11 14:49:32;;;;;;;1.70;1.60;;;;;;;;;;5075514;28;20443;-58
2023/05/11 14:51:59;;;;;;;8.43;2.00;;;;;;;;;;5075154;28;20447;-59
2023/05/11 14:54:27;;;;;;;1.83;1.50;;;;;;;;;;5075200;28;20444;-59
2023/05/11 14:56:54;;;;;;;3.43;1.70;;;;;;;;;;5075067;28;20477;-58
2023/05/11 14:59:23;;;;;;;1.93;1.50;;;;;;;;;;5075250;28;20996;-58
2023/05/11 15:01:50;;;;;;;2.67;1.60;;;;;;;;;;5075086;28;20539;-59
2023/05/11 15:04:17;;;;;;;2.10;2.00;;;;;;;;;;5074468;28;20455;-58